Latest Weather Observations for Emerald

IDQ60801

Issued at 9:02 am EST Sunday 30 August 2015 (issued every 30 minutes, with the page automatically refreshed every 10 minutes)

About weather observations | Map of weather stations | Latest weather observations for QLD | Other Formats
Station Details ID: 035264 Name: EMERALD AIRPORT Lat: -23.57 Lon: 148.18 Height: 189.4 m
Data from the previous 72 hours. | See also: Recent months at Emerald
Date/Time
EST
Temp
°C
App
Temp
°C
Dew
Point
Rel
Hum
%
Delta-T
°C
Wind Press
QNH
hPa
Press
MSL
hPa
Rain
since 9 am
mm
Dir
 
Spd
km/h
Gust
km/h
Spd
kts
Gust
kts
30/09:00am 16.5 13.0 11.0 70 3.0 SSE 20 24 11 13 1020.2 1019.8 22.6
30/08:30am 15.5 13.0 10.9 74 2.5 SSE 15 20 8 11 1020.2 - 22.6
30/08:00am 14.7 12.6 11.3 80 1.8 SSE 13 17 7 9 1020.3 - 22.6
30/07:30am 13.8 11.3 11.1 84 1.4 S 15 20 8 11 1019.9 - 22.6
30/07:00am 13.3 11.3 11.4 88 1.0 S 13 17 7 9 1019.6 - 22.6
30/06:30am 13.0 11.1 11.7 92 0.7 SSE 13 22 7 12 1019.3 - 22.6
30/06:11am 13.1 10.4 11.8 92 0.7 S 17 20 9 11 1018.6 - 22.6
30/06:00am 13.2 10.6 11.9 92 0.7 S 17 22 9 12 1018.6 1018.3 22.6
30/05:30am 13.8 11.5 13.0 95 0.4 S 17 20 9 11 1018.3 - 22.6
30/05:00am 13.9 11.4 13.4 97 0.3 S 19 28 10 15 1018.1 - 22.6
30/04:58am 13.8 11.2 13.3 97 0.3 S 19 26 10 14 1018.1 - 22.6
30/04:30am 14.0 11.9 13.5 97 0.3 S 17 20 9 11 1017.9 - 22.6
30/04:00am 14.4 12.4 13.9 97 0.3 SSE 17 22 9 12 1017.6 - 22.6
30/03:30am 14.8 14.5 14.3 97 0.3 SSE 9 13 5 7 1018.4 - 22.6
30/03:00am 15.0 15.7 14.5 97 0.3 SSW 4 9 2 5 1019.0 1018.7 22.6
30/02:30am 15.0 14.3 14.4 96 0.3 S 11 19 6 10 1019.1 - 21.8
30/02:00am 15.0 13.6 14.5 97 0.3 S 15 22 8 12 1018.5 - 21.8
30/01:30am 15.2 13.5 14.7 97 0.3 S 17 22 9 12 1018.6 - 21.8
30/01:00am 15.7 14.9 15.2 97 0.3 S 13 19 7 10 1019.3 - 21.8
30/12:30am 15.9 16.4 15.6 98 0.2 SE 7 11 4 6 1019.6 - 21.8
30/12:00am 15.9 15.7 15.6 98 0.2 SE 11 13 6 7 1019.6 1019.2 21.8
 
Date/Time
EST
Temp
°C
App
Temp
°C
Dew
Point
Rel
Hum
%
Delta-T
°C
Wind Press
QNH
hPa
Press
MSL
hPa
Rain
since 9 am
mm
Dir
 
Spd
km/h
Gust
km/h
Spd
kts
Gust
kts
29/11:53pm 16.0 15.4 15.7 98 0.2 ESE 13 19 7 10 1019.5 - 21.8
29/11:32pm 16.1 15.9 15.6 97 0.3 WSW 11 19 6 10 1020.2 - 21.2
29/11:30pm 16.3 16.1 15.8 97 0.3 SW 11 19 6 10 1020.3 - 20.6
29/11:00pm 16.2 16.9 15.7 97 0.3 S 6 9 3 5 1019.9 - 19.8
29/10:30pm 16.2 16.8 15.7 97 0.3 ESE 7 9 4 5 1019.9 - 19.8
29/10:00pm 16.3 15.8 15.8 97 0.3 SE 13 17 7 9 1019.9 - 19.8
29/09:44pm 16.4 15.9 15.9 97 0.3 SE 13 20 7 11 1019.9 - 19.8
29/09:30pm 16.5 15.3 16.0 97 0.3 SE 17 20 9 11 1019.8 - 19.8
29/09:01pm 16.7 15.1 16.4 98 0.2 SSE 20 26 11 14 1019.4 - 19.6
29/09:00pm 16.7 15.1 16.4 98 0.2 SSE 20 26 11 14 1019.4 1019.0 19.6
29/08:30pm 16.6 15.9 16.3 98 0.2 SSE 15 20 8 11 1019.3 - 19.6
29/08:08pm 16.6 15.5 16.3 98 0.2 SE 17 24 9 13 1019.0 - 19.6
29/08:00pm 16.7 15.6 16.4 98 0.2 SE 17 22 9 12 1018.9 - 19.6
29/07:36pm 17.0 17.2 16.7 98 0.2 NNE 11 17 6 9 1019.8 - 17.0
29/07:30pm 17.0 17.2 16.7 98 0.2 E 11 15 6 8 1019.5 - 16.2
29/07:28pm 16.9 16.7 16.6 98 0.2 E 13 17 7 9 1019.4 - 16.2
29/07:14pm 16.9 15.5 16.6 98 0.2 SSE 19 24 10 13 1018.3 - 16.2
29/07:07pm 17.0 15.6 16.5 97 0.3 SE 19 26 10 14 1018.6 - 15.6
29/07:00pm 17.1 16.1 16.6 97 0.3 SE 17 24 9 13 1018.2 - 15.6
29/06:34pm 17.2 15.4 16.9 98 0.2 SE 22 28 12 15 1017.9 - 15.6
29/06:30pm 17.2 15.8 16.9 98 0.2 SE 20 26 11 14 1017.8 - 15.6
29/06:00pm 17.4 16.6 17.1 98 0.2 SE 17 20 9 11 1017.9 1017.6 15.6
29/05:45pm 17.2 15.9 16.9 98 0.2 SSE 19 26 10 14 1017.7 - 15.6
29/05:30pm 17.1 15.6 16.8 98 0.2 SSE 20 24 11 13 1017.3 - 15.2
29/05:28pm 17.1 15.6 16.8 98 0.2 SSE 20 24 11 13 1017.5 - 15.0
29/05:00pm 17.5 15.8 17.2 98 0.2 S 22 30 12 16 1017.5 - 13.2
29/04:30pm 17.5 15.4 17.2 98 0.2 SSW 24 30 13 16 1017.5 - 12.4
29/04:23pm 17.6 15.2 17.3 98 0.2 SSW 26 32 14 17 1017.5 - 12.2
29/04:09pm 17.3 14.8 17.0 98 0.2 SSW 26 44 14 24 1017.6 - 11.6
29/04:00pm 17.3 11.8 16.8 97 0.3 SW 41 57 22 31 1017.3 - 11.0
29/03:44pm 18.5 12.2 17.2 92 0.8 WSW 46 72 25 39 1016.7 - 3.0
29/03:42pm 19.7 14.0 17.1 85 1.6 WSW 43 72 23 39 1016.6 - 2.4
29/03:30pm 21.3 19.6 17.1 77 2.6 SSE 22 28 12 15 1015.2 - 2.0
29/03:13pm 22.0 20.8 17.4 75 2.9 SE 20 26 11 14 1015.4 - 2.0
29/03:00pm 22.4 21.9 16.9 71 3.4 ESE 15 24 8 13 1015.7 1015.3 2.0
29/02:53pm 24.0 22.8 15.0 57 5.4 E 15 26 8 14 1015.9 - 1.8
29/02:30pm 26.2 24.9 12.6 43 7.9 ENE 11 19 6 10 1016.2 - 0.0
29/02:00pm 26.5 24.8 12.5 41 8.2 E 13 24 7 13 1016.5 - 0.0
29/01:30pm 26.5 24.8 12.5 41 8.2 NE 13 20 7 11 1017.3 - 0.0
29/01:00pm 27.4 25.1 13.0 41 8.5 NNE 17 28 9 15 1017.8 - 0.0
29/12:30pm 27.1 26.7 14.1 44 7.8 NW 9 22 5 12 1018.6 - 0.0
29/12:00pm 24.9 22.8 13.5 49 6.7 ENE 17 26 9 14 1019.7 1019.3 0.0
29/11:30am 24.4 23.7 13.3 50 6.5 NE 9 19 5 10 1020.3 - 0.0
29/11:00am 23.3 22.0 12.6 51 6.2 ENE 11 17 6 9 1021.0 - 0.0
29/10:30am 22.5 21.6 12.7 54 5.6 E 9 17 5 9 1021.4 - 0.0
29/10:00am 21.3 19.3 11.6 54 5.4 ESE 13 20 7 11 1021.9 - 0.0
29/09:30am 20.7 18.1 10.8 53 5.5 SE 15 20 8 11 1022.2 - 0.0
29/09:00am 20.3 17.0 11.0 55 5.1 SSE 19 24 10 13 1022.0 1021.7 0.0
29/08:30am 19.6 16.1 10.9 57 4.8 SSE 20 26 11 14 1021.9 - 0.0
29/08:00am 19.1 15.7 11.2 60 4.4 SE 20 24 11 13 1021.4 - 0.0
29/07:30am 18.0 15.5 11.1 64 3.8 ESE 15 20 8 11 1021.2 - 0.0
29/07:00am 17.0 13.8 11.1 68 3.2 ESE 19 22 10 12 1020.6 - 0.0
29/06:30am 17.3 13.8 10.9 66 3.5 ESE 20 28 11 15 1020.4 - 0.0
29/06:00am 17.6 14.5 11.6 68 3.3 SSE 19 26 10 14 1020.9 1020.6 0.0
29/05:30am 17.9 15.9 12.6 71 3.0 SSE 15 20 8 11 1020.3 - 0.0
29/05:00am 17.8 15.8 12.7 72 2.9 SE 15 19 8 10 1019.7 - 0.0
29/04:30am 18.3 16.2 12.5 69 3.3 ESE 15 19 8 10 1019.5 - 0.0
29/04:00am 18.9 16.4 12.2 65 3.8 SE 17 20 9 11 1019.8 - 0.0
29/03:30am 19.0 17.2 13.4 70 3.2 SSE 15 20 8 11 1019.8 - 0.0
29/03:00am 19.1 18.3 15.2 78 2.3 SE 13 17 7 9 1020.1 1019.7 0.0
29/02:30am 19.2 18.6 15.7 80 2.1 SE 13 17 7 9 1020.2 - 0.0
29/02:00am 19.2 18.2 15.7 80 2.1 SSE 15 19 8 10 1020.3 - 0.0
29/01:30am 19.3 18.3 15.6 79 2.2 SE 15 19 8 10 1020.1 - 0.0
29/01:00am 19.5 19.0 16.0 80 2.1 SE 13 17 7 9 1020.6 - 0.0
29/12:30am 20.3 19.7 15.7 75 2.8 SE 13 15 7 8 1020.6 - 0.0
29/12:00am 19.9 19.8 16.0 78 2.3 ESE 11 13 6 7 1020.7 1020.4 0.0
 
Date/Time
EST
Temp
°C
App
Temp
°C
Dew
Point
Rel
Hum
%
Delta-T
°C
Wind Press
QNH
hPa
Press
MSL
hPa
Rain
since 9 am
mm
Dir
 
Spd
km/h
Gust
km/h
Spd
kts
Gust
kts
28/11:30pm 19.8 19.7 15.9 78 2.3 SE 11 11 6 6 1020.5 - 0.0
28/11:00pm 20.1 20.0 15.9 77 2.5 ESE 11 13 6 7 1020.3 - 0.0
28/10:30pm 20.1 19.6 15.9 77 2.5 E 13 17 7 9 1020.3 - 0.0
28/10:00pm 19.5 18.7 15.2 76 2.5 ESE 13 17 7 9 1020.1 - 0.0
28/09:30pm 20.7 19.5 15.0 70 3.4 SE 15 19 8 10 1020.0 - 0.0
28/09:00pm 20.9 19.8 15.2 70 3.4 SSE 15 17 8 9 1019.9 1019.5 0.0
28/08:30pm 21.3 20.9 15.2 68 3.6 SSE 11 13 6 7 1019.7 - 0.0
28/08:00pm 21.7 21.3 15.3 67 3.8 S 11 13 6 7 1019.5 - 0.0
28/07:30pm 22.1 21.8 15.5 66 4.0 SSE 11 13 6 7 1018.9 - 0.0
28/07:00pm 22.5 22.5 15.1 63 4.4 SE 9 11 5 6 1018.6 - 0.0
28/06:30pm 23.3 22.9 15.1 60 4.9 SSE 11 13 6 7 1018.4 - 0.0
28/06:00pm 23.8 22.9 14.8 57 5.4 SSE 13 17 7 9 1018.2 1017.9 0.0
28/05:30pm 24.0 22.7 14.7 56 5.6 SSE 15 19 8 10 1017.9 - 0.0
28/05:00pm 25.1 23.2 14.3 51 6.5 SSE 17 22 9 12 1017.5 - 0.0
28/04:30pm 25.5 24.0 14.3 50 6.7 SSE 15 20 8 11 1017.3 - 0.0
28/04:00pm 25.3 23.9 14.4 50 6.5 SSE 15 22 8 12 1017.3 - 0.0
28/03:30pm 25.1 24.6 14.8 52 6.2 SSE 11 17 6 9 1017.6 - 0.0
28/03:00pm 25.2 23.8 14.6 51 6.4 SE 15 22 8 12 1018.0 1017.7 0.0
28/02:30pm 24.7 24.9 14.8 54 6.0 ESE 7 13 4 7 1018.2 - 0.0
28/02:00pm 24.4 22.6 14.5 54 5.9 ESE 17 22 9 12 1018.3 - 0.0
28/01:30pm 25.0 23.8 15.0 53 6.0 E 15 20 8 11 1018.4 - 0.0
28/01:00pm 24.2 22.3 15.1 56 5.5 SE 19 26 10 14 1019.3 - 0.0
28/12:30pm 23.5 22.8 15.3 60 5.0 SSE 13 20 7 11 1020.2 - 0.0
28/12:00pm 23.4 22.1 14.9 59 5.1 SE 15 26 8 14 1020.7 1020.4 0.0
28/11:30am 23.5 21.8 15.8 62 4.7 SE 19 24 10 13 1021.2 - 0.0
28/11:00am 21.9 20.2 15.7 68 3.7 SE 19 24 10 13 1021.9 - 0.0
28/10:30am 21.7 19.7 15.5 68 3.7 SSE 20 28 11 15 1022.2 - 0.0
28/10:00am 21.5 20.2 15.8 70 3.4 SSE 17 22 9 12 1022.4 - 0.0
28/09:30am 20.6 18.3 15.6 73 3.0 SSE 22 30 12 16 1022.7 - 0.0
28/09:00am 20.5 17.7 16.3 77 2.5 SSE 26 32 14 17 1022.6 1022.3 2.0
28/08:30am 18.9 15.0 15.4 80 2.1 SSE 30 39 16 21 1022.3 - 2.0
28/08:00am 18.2 15.8 15.3 83 1.7 SSE 22 32 12 17 1022.2 - 2.0
28/07:30am 17.4 14.8 15.0 86 1.4 SSE 22 32 12 17 1022.0 - 2.0
28/07:00am 17.2 14.8 15.5 90 1.0 SSE 22 32 12 17 1021.5 - 2.0
28/06:30am 17.3 15.6 16.2 93 0.7 SE 20 26 11 14 1021.2 - 2.0
28/06:00am 17.2 16.6 16.7 97 0.3 SSE 15 19 8 10 1020.9 1020.6 2.0
28/05:30am 17.6 17.9 17.0 96 0.4 SSE 11 15 6 8 1020.5 - 2.0
28/05:00am 17.6 18.3 17.1 97 0.3 S 9 13 5 7 1020.3 - 2.0
28/04:30am 17.8 18.6 17.3 97 0.3 S 9 11 5 6 1019.9 - 2.0
28/04:00am 17.9 19.1 17.4 97 0.3 S 7 9 4 5 1019.8 - 2.0
28/03:30am 17.9 18.7 17.4 97 0.3 SSW 9 13 5 7 1019.7 - 2.0
28/03:00am 18.0 19.3 17.5 97 0.3 SW 7 9 4 5 1019.7 1019.3 2.0
28/02:30am 17.8 18.6 17.2 96 0.4 S 9 11 5 6 1019.8 - 2.0
28/02:00am 17.9 18.6 17.1 95 0.5 ESE 9 9 5 5 1020.0 - 2.0
28/01:30am 17.5 18.1 16.9 96 0.4 S 9 13 5 7 1020.4 - 2.0
28/01:00am 17.4 17.5 16.6 95 0.5 ESE 11 13 6 7 1020.4 - 2.0
28/12:30am 17.8 18.0 16.8 94 0.6 SE 11 13 6 7 1021.2 - 2.0
28/12:17am 17.7 18.4 17.1 96 0.4 SE 9 11 5 6 1021.4 - 2.0
28/12:00am 17.9 18.8 16.1 89 1.1 ENE 6 11 3 6 1021.4 1021.1 1.8
 
Date/Time
EST
Temp
°C
App
Temp
°C
Dew
Point
Rel
Hum
%
Delta-T
°C
Wind Press
QNH
hPa
Press
MSL
hPa
Rain
since 9 am
mm
Dir
 
Spd
km/h
Gust
km/h
Spd
kts
Gust
kts
27/11:46pm 18.7 19.5 15.8 83 1.7 WSW 6 9 3 5 1021.6 - 0.8
27/11:30pm 18.8 18.7 16.0 84 1.7 ESE 11 17 6 9 1021.6 - 0.0
27/11:00pm 18.8 18.9 16.6 87 1.3 SSW 11 13 6 7 1021.5 - 0.0
27/10:30pm 19.7 20.2 15.6 77 2.4 S 7 9 4 5 1021.4 - 0.0
27/10:00pm 19.3 19.2 16.0 81 2.0 S 11 13 6 7 1021.1 - 0.0
27/09:30pm 19.5 19.5 16.2 81 2.0 S 11 15 6 8 1021.0 - 0.0
27/09:00pm 19.6 19.5 16.1 80 2.1 S 11 13 6 7 1021.0 1020.7 0.0
27/08:30pm 20.1 20.0 15.9 77 2.5 SSW 11 13 6 7 1021.1 - 0.0
27/08:00pm 20.2 20.3 15.6 75 2.8 SSW 9 13 5 7 1020.9 - 0.0
27/07:30pm 20.3 20.4 15.5 74 2.9 SSW 9 11 5 6 1020.6 - 0.0
27/07:00pm 20.4 20.5 15.6 74 2.9 S 9 11 5 6 1020.1 - 0.0
27/06:30pm 20.7 21.0 15.0 70 3.4 S 7 9 4 5 1019.8 - 0.0
27/06:00pm 21.0 20.3 14.4 66 3.9 SSW 11 15 6 8 1019.8 1019.4 0.0
27/05:30pm 21.6 20.9 14.3 63 4.3 S 11 13 6 7 1019.3 - 0.0
27/05:00pm 22.0 21.5 13.9 60 4.7 S 9 13 5 7 1019.0 - 0.0
27/04:30pm 22.0 21.4 13.4 58 5.0 SE 9 13 5 7 1018.8 - 0.0
27/04:00pm 22.0 21.2 13.9 60 4.7 SE 11 13 6 7 1018.8 - 0.0
27/03:30pm 22.1 21.2 13.7 59 4.9 SE 11 17 6 9 1018.8 - 0.0
27/03:00pm 22.3 21.5 13.9 59 4.9 SE 11 17 6 9 1019.1 1018.8 0.0
27/02:30pm 22.4 21.1 13.7 58 5.1 S 13 17 7 9 1019.8 - 0.0
27/02:00pm 22.0 20.4 13.9 60 4.7 S 15 20 8 11 1019.9 - 0.0
27/01:30pm 22.2 20.8 13.3 57 5.2 S 13 19 7 10 1020.4 - 0.0
27/01:00pm 22.1 20.6 13.2 57 5.2 S 13 19 7 10 1020.7 - 0.0
27/12:30pm 21.9 19.9 14.0 61 4.6 S 17 20 9 11 1021.3 - 0.0
27/12:00pm 22.2 20.7 14.1 60 4.8 S 15 20 8 11 1022.1 1021.8 0.0
27/11:30am 21.9 20.9 15.7 68 3.7 SSW 15 20 8 11 1022.5 - 0.0
27/11:00am 20.8 20.4 16.2 75 2.8 S 13 17 7 9 1022.9 - 0.0
27/10:30am 20.2 20.8 15.8 76 2.6 SW 7 17 4 9 1023.3 - 0.0
27/10:15am 20.3 21.1 16.3 78 2.4 SW 7 11 4 6 1023.5 - 0.0
27/10:00am 19.7 20.6 16.0 79 2.2 SSE 6 9 3 5 1023.2 - 0.0
27/09:30am 19.6 19.7 16.6 83 1.8 SE 11 13 6 7 1023.0 - 0.0

Other Formats:

Comma delimited format used in spreadsheet applications
http://www.bom.gov.au/fwo/IDQ60801/IDQ60801.94363.axf

JavaScript Object Notation format (JSON) in row-major order
http://www.bom.gov.au/fwo/IDQ60801/IDQ60801.94363.json